createdAt,value
2023-04-03T00:00:37.369Z,86.04
2023-04-03T00:03:06.634Z,86.37
2023-04-03T00:05:34.924Z,85.87
2023-04-03T00:08:02.900Z,85.82
2023-04-03T00:10:30.726Z,85.91
2023-04-03T00:12:58.307Z,85.49
2023-04-03T00:15:25.942Z,85.42
2023-04-03T00:17:53.719Z,85.16
2023-04-03T00:20:22.817Z,85.45
2023-04-03T00:22:50.410Z,84.38
2023-04-03T00:25:18.170Z,85.07
2023-04-03T00:27:45.897Z,84.90
2023-04-03T00:30:16.467Z,84.96
2023-04-03T00:32:44.115Z,84.79
2023-04-03T00:35:12.205Z,84.68
2023-04-03T00:37:41.147Z,84.85
2023-04-03T00:40:10.300Z,84.63
2023-04-03T00:42:38.139Z,83.76
2023-04-03T00:45:31.052Z,84.05
2023-04-03T00:48:00.547Z,83.84
2023-04-03T00:50:29.220Z,83.96
2023-04-03T00:52:58.599Z,83.61
2023-04-03T00:55:27.058Z,83.90
2023-04-03T00:57:54.943Z,83.60
2023-04-03T01:00:24.494Z,83.69
2023-04-03T01:02:52.775Z,84.57
2023-04-03T01:05:22.593Z,84.86
2023-04-03T01:07:50.893Z,84.86
2023-04-03T01:10:21.754Z,84.59
2023-04-03T01:12:51.496Z,84.71
2023-04-03T01:15:21.653Z,85.12
2023-04-03T01:17:50.364Z,85.22
2023-04-03T01:20:44.859Z,85.23
2023-04-03T01:23:34.906Z,84.96
2023-04-03T01:26:04.833Z,85.67
2023-04-03T01:28:34.515Z,85.40
2023-04-03T01:31:06.771Z,85.95
2023-04-03T01:33:36.605Z,86.21
2023-04-03T01:36:05.079Z,85.78
2023-04-03T01:38:32.702Z,85.59
2023-04-03T01:41:00.543Z,85.66
2023-04-03T01:43:28.187Z,85.88
2023-04-03T01:45:56.115Z,86.38
2023-04-03T01:48:23.843Z,86.75
2023-04-03T01:50:52.737Z,86.31
2023-04-03T01:53:20.415Z,86.07
2023-04-03T01:55:48.160Z,86.83
2023-04-03T01:58:16.653Z,87.17
2023-04-03T02:00:44.393Z,87.89
2023-04-03T02:03:12.124Z,88.23
2023-04-03T02:05:39.847Z,88.35
2023-04-03T02:08:08.839Z,87.52
2023-04-03T02:10:36.712Z,87.63
2023-04-03T02:13:05.044Z,88.32
2023-04-03T02:15:32.820Z,88.72
2023-04-03T02:18:00.429Z,88.96
2023-04-03T02:20:28.204Z,89.58
2023-04-03T02:22:55.755Z,90.07
2023-04-03T02:25:24.674Z,90.23
2023-04-03T02:27:52.398Z,90.72
2023-04-03T02:30:20.304Z,90.47
2023-04-03T02:32:47.918Z,90.26
2023-04-03T02:35:15.836Z,91.15
2023-04-03T02:37:43.553Z,90.83
2023-04-03T02:40:12.397Z,90.61
2023-04-03T02:42:41.368Z,91.42
2023-04-03T02:45:09.757Z,92.08
2023-04-03T02:47:37.362Z,92.53
2023-04-03T02:50:05.548Z,92.57
2023-04-03T02:52:33.179Z,92.51
2023-04-03T02:55:00.766Z,92.83
2023-04-03T02:57:28.414Z,93.27
2023-04-03T02:59:57.327Z,93.73
2023-04-03T03:02:25.035Z,93.57
2023-04-03T03:04:52.652Z,93.63
2023-04-03T03:07:20.283Z,93.40
2023-04-03T03:09:48.005Z,92.78
2023-04-03T03:12:15.635Z,92.78
2023-04-03T03:14:43.838Z,92.80
2023-04-03T03:17:12.727Z,92.65
2023-04-03T03:19:40.318Z,92.97
2023-04-03T03:22:07.946Z,92.81
2023-04-03T03:24:35.502Z,93.37
2023-04-03T03:27:03.131Z,92.74
2023-04-03T03:29:30.680Z,93.39
2023-04-03T03:31:58.224Z,93.99
2023-04-03T03:34:27.138Z,93.22
2023-04-03T03:36:54.756Z,93.76
2023-04-03T03:39:22.369Z,93.48
2023-04-03T03:41:50.673Z,93.37
2023-04-03T03:44:18.263Z,94.65
2023-04-03T03:46:45.849Z,94.16
2023-04-03T03:49:13.647Z,94.16
2023-04-03T03:51:42.609Z,94.38
2023-04-03T03:54:10.407Z,94.46
2023-04-03T03:56:38.149Z,94.58
2023-04-03T03:59:05.981Z,95.38
2023-04-03T04:01:33.636Z,94.92
2023-04-03T04:04:01.265Z,94.45
2023-04-03T04:06:28.945Z,94.68
2023-04-03T04:08:58.077Z,95.14
2023-04-03T04:11:25.904Z,94.94
2023-04-03T04:13:53.461Z,95.09
2023-04-03T04:16:21.329Z,95.23
2023-04-03T04:18:48.930Z,95.71
2023-04-03T04:21:16.548Z,95.25
2023-04-03T04:23:44.066Z,94.84
2023-04-03T04:26:12.987Z,94.53
2023-04-03T04:28:40.582Z,94.64
2023-04-03T04:31:08.413Z,94.45
2023-04-03T04:33:36.644Z,94.60
2023-04-03T04:36:04.698Z,95.29
2023-04-03T04:38:32.348Z,94.80
2023-04-03T04:40:59.944Z,93.79
2023-04-03T04:43:28.865Z,93.35
2023-04-03T04:46:04.143Z,91.94
2023-04-03T04:48:32.828Z,90.79
2023-04-03T04:51:00.770Z,90.22
2023-04-03T04:53:28.490Z,90.15
2023-04-03T04:55:56.334Z,90.12
2023-04-03T04:58:23.956Z,89.59
2023-04-03T05:01:00.490Z,89.13
2023-04-03T05:03:28.144Z,89.29
2023-04-03T05:05:55.814Z,89.24
2023-04-03T05:08:23.772Z,89.35
2023-04-03T05:10:52.756Z,89.51
2023-04-03T05:13:21.817Z,89.29
2023-04-03T05:15:49.621Z,90.02
2023-04-03T05:18:18.670Z,88.91
2023-04-03T05:20:46.342Z,89.26
2023-04-03T05:23:13.904Z,89.64
2023-04-03T05:25:41.492Z,89.46
2023-04-03T05:28:09.403Z,88.74
2023-04-03T05:30:37.066Z,88.56
2023-04-03T05:33:04.903Z,88.28
2023-04-03T05:35:34.051Z,88.56
2023-04-03T05:38:01.897Z,88.67
2023-04-03T05:40:29.427Z,87.27
2023-04-03T05:42:57.014Z,87.77
2023-04-03T05:45:24.573Z,88.02
2023-04-03T05:47:52.155Z,88.59
2023-04-03T05:50:20.019Z,88.18
2023-04-03T05:52:50.921Z,87.92
2023-04-03T05:55:18.669Z,88.21
2023-04-03T05:57:46.247Z,88.46
2023-04-03T06:00:16.394Z,88.21
2023-04-03T06:02:44.719Z,88.44
2023-04-03T06:05:14.037Z,88.20
2023-04-03T06:07:41.712Z,88.70
2023-04-03T06:10:13.228Z,88.46
2023-04-03T06:12:41.255Z,87.85
2023-04-03T06:15:10.936Z,88.16
2023-04-03T06:17:39.278Z,87.18
2023-04-03T06:20:08.665Z,87.33
2023-04-03T06:22:36.338Z,87.01
2023-04-03T06:25:04.793Z,87.19
2023-04-03T06:27:33.744Z,87.49
2023-04-03T06:30:01.306Z,87.03
2023-04-03T06:32:28.892Z,87.07
2023-04-03T06:34:56.482Z,87.40
2023-04-03T06:37:26.885Z,87.59
2023-04-03T06:39:54.653Z,87.02
2023-04-03T06:42:22.558Z,87.32
2023-04-03T06:44:51.649Z,86.25
2023-04-03T06:47:19.865Z,87.09
2023-04-03T06:49:47.665Z,86.09
2023-04-03T06:52:15.310Z,85.73
2023-04-03T06:54:43.011Z,85.48
2023-04-03T06:57:10.697Z,85.45
2023-04-03T06:59:38.455Z,84.79
2023-04-03T07:02:07.811Z,84.91
2023-04-03T07:04:35.742Z,84.56
2023-04-03T07:07:03.336Z,84.62
2023-04-03T07:09:31.468Z,84.88
2023-04-03T07:11:59.080Z,84.29
2023-04-03T07:14:26.753Z,83.74
2023-04-03T07:16:54.378Z,83.04
2023-04-03T07:19:25.358Z,82.50
2023-04-03T07:21:52.970Z,83.48
2023-04-03T07:24:20.529Z,82.53
2023-04-03T07:26:51.305Z,80.93
2023-04-03T07:29:18.868Z,80.71
2023-04-03T07:31:46.566Z,80.32
2023-04-03T07:34:14.326Z,79.89
2023-04-03T07:36:43.460Z,80.39
2023-04-03T07:39:12.064Z,80.10
2023-04-03T07:41:39.691Z,79.66
2023-04-03T07:44:10.593Z,79.66
2023-04-03T07:46:38.342Z,80.24
2023-04-03T07:49:06.317Z,79.23
2023-04-03T07:51:33.873Z,79.40
2023-04-03T07:54:02.846Z,78.93
2023-04-03T07:56:30.457Z,77.76
2023-04-03T07:58:58.025Z,77.96
2023-04-03T08:01:25.640Z,77.73
2023-04-03T08:03:53.315Z,76.92
2023-04-03T08:06:29.349Z,77.79
2023-04-03T08:09:02.624Z,77.80
2023-04-03T08:11:30.311Z,77.50
2023-04-03T08:13:58.115Z,77.84
2023-04-03T08:16:27.727Z,76.69
2023-04-03T08:18:55.715Z,78.49
2023-04-03T08:21:23.754Z,78.29
2023-04-03T08:23:52.157Z,78.66
2023-04-03T08:26:23.222Z,77.82
2023-04-03T08:28:51.143Z,77.81
2023-04-03T08:31:21.110Z,78.02
2023-04-03T08:33:50.176Z,77.55
2023-04-03T08:36:20.377Z,78.22
2023-04-03T08:38:48.017Z,78.97
2023-04-03T08:41:17.688Z,77.70
2023-04-03T08:43:58.501Z,77.52
2023-04-03T08:46:30.797Z,77.29
2023-04-03T08:48:59.445Z,76.69
2023-04-03T08:51:28.368Z,76.69
2023-04-03T08:53:59.036Z,76.98
2023-04-03T08:56:26.774Z,76.57
2023-04-03T08:58:58.229Z,75.42
2023-04-03T09:01:28.717Z,76.41
2023-04-03T09:03:56.519Z,76.53
2023-04-03T09:06:25.929Z,76.72
2023-04-03T09:08:58.509Z,74.91
2023-04-03T09:11:28.362Z,74.16
2023-04-03T09:14:02.044Z,74.07
2023-04-03T09:16:38.390Z,74.12
2023-04-03T09:19:15.570Z,73.95
2023-04-03T09:21:43.748Z,73.99
2023-04-03T09:24:12.880Z,72.06
2023-04-03T09:26:44.494Z,72.11
2023-04-03T09:29:16.857Z,72.88
2023-04-03T09:31:45.052Z,72.93
2023-04-03T09:34:23.566Z,74.67
2023-04-03T09:36:53.336Z,73.66
2023-04-03T09:39:22.886Z,72.72
2023-04-03T09:42:05.223Z,72.80
2023-04-03T09:44:36.696Z,71.85
2023-04-03T09:47:20.496Z,71.77
2023-04-03T09:49:48.077Z,71.89
2023-04-03T09:52:24.298Z,71.14
2023-04-03T09:54:51.952Z,71.42
2023-04-03T09:57:20.037Z,72.01
2023-04-03T10:00:00.657Z,70.93
2023-04-03T10:02:36.507Z,69.66
2023-04-03T10:07:37.894Z,69.88
2023-04-03T10:10:19.182Z,69.91
2023-04-03T10:12:47.409Z,69.52
2023-04-03T10:15:18.037Z,70.29
2023-04-03T10:17:54.579Z,70.20
2023-04-03T10:20:29.405Z,69.06
2023-04-03T10:23:05.100Z,69.37
2023-04-03T10:25:37.452Z,69.12
2023-04-03T10:28:08.259Z,69.04
2023-04-03T10:30:44.023Z,69.60
2023-04-03T10:33:21.815Z,69.44
2023-04-03T10:35:55.565Z,70.29
2023-04-03T10:38:30.281Z,68.50
2023-04-03T10:41:02.951Z,69.30
2023-04-03T10:43:36.158Z,69.73
2023-04-03T10:46:09.835Z,68.77
2023-04-03T10:48:45.529Z,68.04
2023-04-03T10:51:27.123Z,68.45
2023-04-03T10:53:59.007Z,67.94
2023-04-03T10:56:34.105Z,68.80
2023-04-03T10:59:10.336Z,68.65
2023-04-03T11:01:41.590Z,67.65
2023-04-03T11:04:09.802Z,68.19
2023-04-03T11:06:40.554Z,67.58
2023-04-03T11:09:17.037Z,67.49
2023-04-03T11:11:45.165Z,66.60
2023-04-03T11:14:17.368Z,66.11
2023-04-03T11:16:54.295Z,66.82
2023-04-03T11:19:25.260Z,67.85
2023-04-03T11:21:57.484Z,67.29
2023-04-03T11:24:27.879Z,66.72
2023-04-03T11:26:56.870Z,64.13
2023-04-03T11:29:34.912Z,66.22
2023-04-03T11:32:11.921Z,65.80
2023-04-03T11:34:44.145Z,65.01
2023-04-03T11:37:18.167Z,65.13
2023-04-03T11:39:52.737Z,66.18
2023-04-03T11:42:34.201Z,66.81
2023-04-03T11:45:35.418Z,65.69
2023-04-03T11:48:20.805Z,65.31
2023-04-03T11:50:49.190Z,64.66
2023-04-03T11:53:37.911Z,65.76
2023-04-03T11:56:37.076Z,64.07
2023-04-03T11:59:21.513Z,62.87
2023-04-03T12:01:50.977Z,63.12
2023-04-03T12:04:20.867Z,62.17
2023-04-03T12:07:24.097Z,62.34
2023-04-03T12:10:01.528Z,63.74
2023-04-03T12:12:40.502Z,63.47
2023-04-03T12:15:21.739Z,63.61
2023-04-03T12:17:49.425Z,64.67
2023-04-03T12:20:57.818Z,62.67
2023-04-03T12:23:28.387Z,63.69
2023-04-03T12:26:05.633Z,63.52
2023-04-03T12:28:39.713Z,62.82
2023-04-03T12:31:10.455Z,62.64
2023-04-03T12:33:48.238Z,63.14
2023-04-03T12:36:20.603Z,60.71
2023-04-03T12:39:03.507Z,61.89
2023-04-03T12:41:39.217Z,61.45
2023-04-03T12:44:25.502Z,61.30
2023-04-03T12:46:54.595Z,59.95
2023-04-03T12:49:36.090Z,60.67
2023-04-03T12:52:24.117Z,60.25
2023-04-03T12:54:52.455Z,59.63
2023-04-03T12:57:21.410Z,58.45
2023-04-03T12:59:49.561Z,59.14
2023-04-03T13:02:24.464Z,60.39
2023-04-03T13:04:58.744Z,58.90
2023-04-03T13:07:32.585Z,57.05
2023-04-03T13:10:02.746Z,55.89
2023-04-03T13:12:32.274Z,57.79
2023-04-03T13:15:05.129Z,56.12
2023-04-03T13:17:33.170Z,56.66
2023-04-03T13:20:12.697Z,55.62
2023-04-03T13:22:51.414Z,56.65
2023-04-03T13:25:19.984Z,56.28
2023-04-03T13:27:47.621Z,56.07
2023-04-03T13:30:25.967Z,55.29
2023-04-03T13:32:54.007Z,54.53
2023-04-03T13:35:34.826Z,55.75
2023-04-03T13:38:08.271Z,56.06
2023-04-03T13:40:46.937Z,55.16
2023-04-03T13:43:20.838Z,55.46
2023-04-03T13:46:07.738Z,54.54
2023-04-03T13:48:40.885Z,53.75
2023-04-03T13:51:19.835Z,53.97
2023-04-03T13:53:51.638Z,54.20
2023-04-03T13:56:22.822Z,54.78
2023-04-03T13:59:04.132Z,54.79
2023-04-03T14:01:43.939Z,54.36
2023-04-03T14:04:20.616Z,55.70
2023-04-03T14:06:48.811Z,54.93
2023-04-03T14:09:19.303Z,54.15
2023-04-03T14:11:48.288Z,53.64
2023-04-03T14:14:19.459Z,54.95
2023-04-03T14:16:49.945Z,54.18
2023-04-03T14:19:21.731Z,53.81
2023-04-03T14:21:49.759Z,54.55
2023-04-03T14:24:20.009Z,55.28
2023-04-03T14:26:48.342Z,54.80
2023-04-03T14:29:16.513Z,53.84
2023-04-03T14:31:45.540Z,52.88
2023-04-03T14:34:13.532Z,52.55
2023-04-03T14:36:42.603Z,52.27
2023-04-03T14:39:13.532Z,53.74
2023-04-03T14:41:42.409Z,53.35
2023-04-03T14:44:09.974Z,53.37
2023-04-03T14:46:55.395Z,53.45
2023-04-03T14:49:26.476Z,53.79
2023-04-03T14:51:54.586Z,53.35
2023-04-03T14:54:26.492Z,53.10
2023-04-03T14:56:57.268Z,53.33
2023-04-03T14:59:24.843Z,53.55
2023-04-03T15:01:52.553Z,54.16
2023-04-03T15:04:22.410Z,53.31
2023-04-03T15:06:50.361Z,54.31
2023-04-03T15:09:22.439Z,53.49
2023-04-03T15:11:50.531Z,54.90
2023-04-03T15:14:29.927Z,53.55
2023-04-03T15:17:05.014Z,53.61
2023-04-03T15:19:33.507Z,54.03
2023-04-03T15:22:01.163Z,52.89
2023-04-03T15:24:28.665Z,53.41
2023-04-03T15:26:56.399Z,54.63
2023-04-03T15:29:25.909Z,53.97
2023-04-03T15:31:54.695Z,53.64
2023-04-03T15:34:23.081Z,53.85
2023-04-03T15:36:53.398Z,53.38
2023-04-03T15:39:21.525Z,54.38
2023-04-03T15:41:49.421Z,53.74
2023-04-03T15:44:18.522Z,54.11
2023-04-03T15:46:47.839Z,53.59
2023-04-03T15:49:15.495Z,53.62
2023-04-03T15:51:43.235Z,53.77
2023-04-03T15:54:10.790Z,54.34
2023-04-03T15:56:38.352Z,53.93
2023-04-03T15:59:06.279Z,53.64
2023-04-03T16:01:34.001Z,54.13
2023-04-03T16:04:02.991Z,54.24
2023-04-03T16:06:32.725Z,54.78
2023-04-03T16:09:01.622Z,53.93
2023-04-03T16:11:29.493Z,53.69
2023-04-03T16:13:57.079Z,53.70
2023-04-03T16:16:25.571Z,54.95
2023-04-03T16:18:53.292Z,55.11
2023-04-03T16:21:22.246Z,54.52
2023-04-03T16:23:50.420Z,54.89
2023-04-03T16:26:18.389Z,55.33
2023-04-03T16:28:46.055Z,54.81
2023-04-03T16:31:13.687Z,54.96
2023-04-03T16:33:41.520Z,54.05
2023-04-03T16:36:09.490Z,54.63
2023-04-03T16:38:38.691Z,53.46
2023-04-03T16:41:06.569Z,53.90
2023-04-03T16:43:34.729Z,54.03
2023-04-03T16:46:03.758Z,54.67
2023-04-03T16:48:32.015Z,54.30
2023-04-03T16:51:00.529Z,54.78
2023-04-03T16:53:29.115Z,54.00
2023-04-03T16:55:59.503Z,54.92
2023-04-03T16:58:27.164Z,55.20
2023-04-03T17:00:55.902Z,56.26
2023-04-03T17:03:26.742Z,56.20
2023-04-03T17:05:54.652Z,56.03
2023-04-03T17:08:22.227Z,56.37
2023-04-03T17:10:51.533Z,55.84
2023-04-03T17:13:20.437Z,55.75
2023-04-03T17:15:48.077Z,56.30
2023-04-03T17:18:15.962Z,56.43
2023-04-03T17:20:43.511Z,57.02
2023-04-03T17:23:11.230Z,57.12
2023-04-03T17:25:39.049Z,57.21
2023-04-03T17:28:06.747Z,57.54
2023-04-03T17:30:35.738Z,57.48
2023-04-03T17:33:03.327Z,58.01
2023-04-03T17:35:31.486Z,58.32
2023-04-03T17:37:59.022Z,58.10
2023-04-03T17:40:26.998Z,59.42
2023-04-03T17:42:54.596Z,59.25
2023-04-03T17:45:22.423Z,59.55
2023-04-03T17:47:52.650Z,59.73
2023-04-03T17:50:20.569Z,60.35
2023-04-03T17:52:48.211Z,60.49
2023-04-03T17:55:17.637Z,59.92
2023-04-03T17:57:45.342Z,59.79
2023-04-03T18:00:15.615Z,59.23
2023-04-03T18:02:43.455Z,58.85
2023-04-03T18:05:12.912Z,59.74
2023-04-03T18:07:40.985Z,60.09
2023-04-03T18:10:09.973Z,60.27
2023-04-03T18:12:37.831Z,60.58
2023-04-03T18:15:06.342Z,60.91
2023-04-03T18:17:33.977Z,61.47
2023-04-03T18:20:01.603Z,61.65
2023-04-03T18:22:30.766Z,61.91
2023-04-03T18:24:59.388Z,61.78
2023-04-03T18:27:28.409Z,61.67
2023-04-03T18:29:58.385Z,61.08
2023-04-03T18:32:26.203Z,61.84
2023-04-03T18:34:53.751Z,61.29
2023-04-03T18:37:23.813Z,61.17
2023-04-03T18:39:52.964Z,61.03
2023-04-03T18:42:22.841Z,60.62
2023-04-03T18:44:53.344Z,61.60
2023-04-03T18:47:20.903Z,61.16
2023-04-03T18:49:48.502Z,61.04
2023-04-03T18:52:16.111Z,61.15
2023-04-03T18:54:44.057Z,61.09
2023-04-03T18:57:13.041Z,60.78
2023-04-03T18:59:40.595Z,61.30
2023-04-03T19:02:08.596Z,61.71
2023-04-03T19:04:36.485Z,62.40
2023-04-03T19:07:06.263Z,62.72
2023-04-03T19:09:34.302Z,63.11
2023-04-03T19:12:02.557Z,63.45
2023-04-03T19:14:31.519Z,63.92
2023-04-03T19:16:59.200Z,64.49
2023-04-03T19:19:26.889Z,64.53
2023-04-03T19:21:54.491Z,64.50
2023-04-03T19:24:22.357Z,64.20
2023-04-03T19:26:49.947Z,64.10
2023-04-03T19:29:17.816Z,64.19
2023-04-03T19:31:46.774Z,64.38
2023-04-03T19:34:14.458Z,64.83
2023-04-03T19:36:43.117Z,65.06
2023-04-03T19:39:12.250Z,65.37
2023-04-03T19:41:42.983Z,65.56
2023-04-03T19:44:10.898Z,65.95
2023-04-03T19:46:38.502Z,66.13
2023-04-03T19:49:07.537Z,66.33
2023-04-03T19:51:35.087Z,66.49
2023-04-03T19:54:02.665Z,66.08
2023-04-03T19:56:30.542Z,65.57
2023-04-03T19:58:58.107Z,66.07
2023-04-03T20:01:27.714Z,65.68
2023-04-03T20:03:55.437Z,66.26
2023-04-03T20:06:24.440Z,66.34
2023-04-03T20:08:52.052Z,66.31
2023-04-03T20:11:19.719Z,66.58
2023-04-03T20:13:49.861Z,66.17
2023-04-03T20:16:18.152Z,66.71
2023-04-03T20:18:47.350Z,66.79
2023-04-03T20:21:15.012Z,66.85
2023-04-03T20:23:44.657Z,66.83
2023-04-03T20:26:23.197Z,67.32
2023-04-03T20:28:50.985Z,66.81
2023-04-03T20:31:18.666Z,67.03
2023-04-03T20:33:47.761Z,67.36
2023-04-03T20:36:15.735Z,67.45
2023-04-03T20:38:44.726Z,67.41
2023-04-03T20:41:12.690Z,67.95
2023-04-03T20:43:42.638Z,67.83
2023-04-03T20:46:10.776Z,67.96
2023-04-03T20:48:39.114Z,67.77
2023-04-03T20:51:10.977Z,68.39
2023-04-03T20:53:38.557Z,68.72
2023-04-03T20:56:09.026Z,68.66
2023-04-03T20:58:39.423Z,68.57
2023-04-03T21:01:15.341Z,68.67
2023-04-03T21:03:43.201Z,68.89
2023-04-03T21:06:49.550Z,68.94
2023-04-03T21:09:54.519Z,68.84
2023-04-03T21:13:00.196Z,69.13
2023-04-03T21:15:55.189Z,69.28
2023-04-03T21:18:52.816Z,69.69
2023-04-03T21:21:23.021Z,69.67
2023-04-03T21:23:51.836Z,69.77
2023-04-03T21:26:19.567Z,70.03
2023-04-03T21:28:47.315Z,70.43
2023-04-03T21:31:15.272Z,70.08
2023-04-03T21:33:43.290Z,70.41
2023-04-03T21:36:12.338Z,70.24
2023-04-03T21:38:39.885Z,70.36
2023-04-03T21:41:07.520Z,70.55
2023-04-03T21:43:35.213Z,71.19
2023-04-03T21:46:02.850Z,70.97
2023-04-03T21:48:30.882Z,70.93
2023-04-03T21:51:05.129Z,70.93
2023-04-03T21:53:34.469Z,71.45
2023-04-03T21:56:02.606Z,71.52
2023-04-03T21:58:31.995Z,71.72
2023-04-03T22:01:00.174Z,71.98
2023-04-03T22:03:27.816Z,72.37
2023-04-03T22:05:59.444Z,72.80
2023-04-03T22:08:27.099Z,72.89
2023-04-03T22:11:02.544Z,73.03
2023-04-03T22:13:30.391Z,73.00
2023-04-03T22:15:59.145Z,73.18
2023-04-03T22:18:27.202Z,74.10
2023-04-03T22:20:55.551Z,73.68
2023-04-03T22:23:23.125Z,73.95
2023-04-03T22:26:02.590Z,74.04
2023-04-03T22:28:31.031Z,74.37
2023-04-03T22:31:01.926Z,74.18
2023-04-03T22:33:29.442Z,74.72
2023-04-03T22:35:57.060Z,74.74
2023-04-03T22:38:24.920Z,74.70
2023-04-03T22:40:58.629Z,75.14
2023-04-03T22:43:28.540Z,75.20
2023-04-03T22:45:56.437Z,75.18
2023-04-03T22:48:24.593Z,75.27
2023-04-03T22:50:52.422Z,75.54
2023-04-03T22:53:19.943Z,75.62
2023-04-03T22:55:55.373Z,75.89
2023-04-03T22:58:25.802Z,76.13
2023-04-03T23:00:55.515Z,75.57
2023-04-03T23:03:24.212Z,76.04
2023-04-03T23:05:52.510Z,75.99
2023-04-03T23:08:20.188Z,76.19
2023-04-03T23:10:48.752Z,76.16
2023-04-03T23:13:16.334Z,76.82
2023-04-03T23:15:43.930Z,76.91
2023-04-03T23:18:12.820Z,76.84
2023-04-03T23:20:40.694Z,77.46
2023-04-03T23:23:08.381Z,77.39
2023-04-03T23:25:36.539Z,77.93
2023-04-03T23:28:04.179Z,77.80
2023-04-03T23:30:32.236Z,77.89
2023-04-03T23:32:59.905Z,77.67
2023-04-03T23:35:30.102Z,77.49
2023-04-03T23:37:57.829Z,77.34
2023-04-03T23:40:25.483Z,77.67
2023-04-03T23:42:53.066Z,77.83
2023-04-03T23:45:20.570Z,77.94
2023-04-03T23:47:48.085Z,77.96
2023-04-03T23:50:15.832Z,77.56
2023-04-03T23:52:44.753Z,77.92
2023-04-03T23:55:12.623Z,78.05
2023-04-03T23:57:42.438Z,78.20
